Aviation Digital Data Service (ADDS)

Output produced by METARs form (0219 UTC 26 January 2015)
found at http://www.aviationweather.gov/adds/metars/
 
KSBY 260154Z 17005KT 10SM CLR 04/M01 A2990 RMK AO2 SLP128 T00441006
KSBY 252330Z 2600/2624 15004KT P6SM SCT100 BKN250 
     FM261500 06005KT P6SM -RA OVC050 
     FM261800 05012G20KT 4SM -RA BR OVC015 
     FM262100 03015G23KT 2SM -RA BR OVC008